<?xml version="1.0" encoding="UTF-8" standalone="no" ?>
<gpx xmlns="http://www.topografix.com/GPX/1/1" xmlns:xsi="http://www.w3.org/2001/XMLSchema-instance" xsi:schemaLocation="http://www.topografix.com/GPX/1/1 http://www.topografix.com/GPX/1/1/gpx.xsd" version="1.1" creator="VisuGPX - https://www.visugpx.com">
  <metadata>
    <name>2017 CAUSSWATTS</name>
  </metadata>
  <trk>
    <name><![CDATA[causwatts 07-rieisse-le r...]]></name>
    <trkseg>
      <trkpt lat="44.28715" lon="3.29905">
        <ele>915</ele>
        <time>2017-02-27T14:54:18Z</time>
      </trkpt>
      <trkpt lat="44.28719" lon="3.30007">
        <ele>911</ele>
        <time>2017-02-27T14:56:18Z</time>
      </trkpt>
      <trkpt lat="44.2869" lon="3.30027">
        <ele>909</ele>
        <time>2017-02-27T14:58:18Z</time>
      </trkpt>
      <trkpt lat="44.28736" lon="3.30115">
        <ele>909</ele>
        <time>2017-02-27T15:00:18Z</time>
      </trkpt>
      <trkpt lat="44.2874" lon="3.30271">
        <ele>895</ele>
        <time>2017-02-27T15:02:18Z</time>
      </trkpt>
      <trkpt lat="44.28836" lon="3.30462">
        <ele>882</ele>
        <time>2017-02-27T15:04:18Z</time>
      </trkpt>
      <trkpt lat="44.28888" lon="3.30569">
        <ele>873</ele>
        <time>2017-02-27T15:06:18Z</time>
      </trkpt>
      <trkpt lat="44.28925" lon="3.30607">
        <ele>872</ele>
        <time>2017-02-27T15:08:18Z</time>
      </trkpt>
      <trkpt lat="44.29008" lon="3.3081">
        <ele>846</ele>
        <time>2017-02-27T15:10:18Z</time>
      </trkpt>
      <trkpt lat="44.29021" lon="3.3085">
        <ele>838</ele>
        <time>2017-02-27T15:12:18Z</time>
      </trkpt>
      <trkpt lat="44.28997" lon="3.30857">
        <ele>836</ele>
        <time>2017-02-27T15:14:18Z</time>
      </trkpt>
      <trkpt lat="44.29005" lon="3.30879">
        <ele>831</ele>
        <time>2017-02-27T15:16:18Z</time>
      </trkpt>
      <trkpt lat="44.28979" lon="3.30872">
        <ele>830</ele>
        <time>2017-02-27T15:18:18Z</time>
      </trkpt>
      <trkpt lat="44.28986" lon="3.30915">
        <ele>821</ele>
        <time>2017-02-27T15:20:18Z</time>
      </trkpt>
      <trkpt lat="44.29038" lon="3.30936">
        <ele>811</ele>
        <time>2017-02-27T15:22:18Z</time>
      </trkpt>
      <trkpt lat="44.29028" lon="3.30964">
        <ele>801</ele>
        <time>2017-02-27T15:24:18Z</time>
      </trkpt>
      <trkpt lat="44.29254" lon="3.30939">
        <ele>765</ele>
        <time>2017-02-27T15:26:18Z</time>
      </trkpt>
      <trkpt lat="44.29169" lon="3.3101">
        <ele>752</ele>
        <time>2017-02-27T15:28:18Z</time>
      </trkpt>
      <trkpt lat="44.29156" lon="3.31058">
        <ele>746</ele>
        <time>2017-02-27T15:30:18Z</time>
      </trkpt>
      <trkpt lat="44.29238" lon="3.31082">
        <ele>709</ele>
        <time>2017-02-27T15:32:18Z</time>
      </trkpt>
      <trkpt lat="44.29257" lon="3.3121">
        <ele>716</ele>
        <time>2017-02-27T15:34:18Z</time>
      </trkpt>
      <trkpt lat="44.2935" lon="3.31239">
        <ele>666</ele>
        <time>2017-02-27T15:36:18Z</time>
      </trkpt>
      <trkpt lat="44.29339" lon="3.31291">
        <ele>683</ele>
        <time>2017-02-27T15:38:18Z</time>
      </trkpt>
      <trkpt lat="44.29356" lon="3.31338">
        <ele>679</ele>
        <time>2017-02-27T15:40:18Z</time>
      </trkpt>
      <trkpt lat="44.29451" lon="3.31408">
        <ele>650</ele>
        <time>2017-02-27T15:42:18Z</time>
      </trkpt>
      <trkpt lat="44.29531" lon="3.31418">
        <ele>617</ele>
        <time>2017-02-27T15:44:18Z</time>
      </trkpt>
      <trkpt lat="44.29632" lon="3.31549">
        <ele>610</ele>
        <time>2017-02-27T15:46:18Z</time>
      </trkpt>
      <trkpt lat="44.29745" lon="3.31598">
        <ele>582</ele>
        <time>2017-02-27T15:48:18Z</time>
      </trkpt>
      <trkpt lat="44.29777" lon="3.31664">
        <ele>589</ele>
        <time>2017-02-27T15:50:18Z</time>
      </trkpt>
      <trkpt lat="44.2981" lon="3.31692">
        <ele>578</ele>
        <time>2017-02-27T15:52:18Z</time>
      </trkpt>
      <trkpt lat="44.29825" lon="3.31682">
        <ele>566</ele>
        <time>2017-02-27T15:54:18Z</time>
      </trkpt>
      <trkpt lat="44.29795" lon="3.31631">
        <ele>568</ele>
        <time>2017-02-27T15:56:18Z</time>
      </trkpt>
      <trkpt lat="44.29776" lon="3.31578">
        <ele>559</ele>
        <time>2017-02-27T15:58:18Z</time>
      </trkpt>
      <trkpt lat="44.29759" lon="3.31537">
        <ele>547</ele>
        <time>2017-02-27T16:00:18Z</time>
      </trkpt>
      <trkpt lat="44.2989" lon="3.31643">
        <ele>515</ele>
        <time>2017-02-27T16:02:18Z</time>
      </trkpt>
      <trkpt lat="44.29931" lon="3.31623">
        <ele>489</ele>
        <time>2017-02-27T16:04:18Z</time>
      </trkpt>
      <trkpt lat="44.29986" lon="3.31902">
        <ele>467</ele>
        <time>2017-02-27T16:06:18Z</time>
      </trkpt>
      <trkpt lat="44.29975" lon="3.31666">
        <ele>471</ele>
        <time>2017-02-27T16:08:18Z</time>
      </trkpt>
      <trkpt lat="44.29992" lon="3.31608">
        <ele>460</ele>
        <time>2017-02-27T16:10:18Z</time>
      </trkpt>
      <trkpt lat="44.2988" lon="3.31413">
        <ele>458</ele>
        <time>2017-02-27T16:12:18Z</time>
      </trkpt>
      <trkpt lat="44.29825" lon="3.31379">
        <ele>467</ele>
        <time>2017-02-27T16:14:18Z</time>
      </trkpt>
      <trkpt lat="44.29825" lon="3.31246">
        <ele>467</ele>
        <time>2017-02-27T16:16:18Z</time>
      </trkpt>
      <trkpt lat="44.29844" lon="3.31157">
        <ele>473</ele>
        <time>2017-02-27T16:18:18Z</time>
      </trkpt>
      <trkpt lat="44.29916" lon="3.3107">
        <ele>472</ele>
        <time>2017-02-27T16:20:18Z</time>
      </trkpt>
      <trkpt lat="44.30055" lon="3.31031">
        <ele>468</ele>
        <time>2017-02-27T16:22:18Z</time>
      </trkpt>
      <trkpt lat="44.30098" lon="3.31033">
        <ele>462</ele>
        <time>2017-02-27T16:24:18Z</time>
      </trkpt>
      <trkpt lat="44.30131" lon="3.3096">
        <ele>475</ele>
        <time>2017-02-27T16:26:18Z</time>
      </trkpt>
      <trkpt lat="44.30279" lon="3.30773">
        <ele>469</ele>
        <time>2017-02-27T16:28:18Z</time>
      </trkpt>
      <trkpt lat="44.30444" lon="3.30396">
        <ele>469</ele>
        <time>2017-02-27T16:30:18Z</time>
      </trkpt>
      <trkpt lat="44.30495" lon="3.30274">
        <ele>463</ele>
        <time>2017-02-27T16:32:18Z</time>
      </trkpt>
      <trkpt lat="44.30505" lon="3.30131">
        <ele>467</ele>
        <time>2017-02-27T16:34:18Z</time>
      </trkpt>
      <trkpt lat="44.30499" lon="3.30061">
        <ele>461</ele>
        <time>2017-02-27T16:36:18Z</time>
      </trkpt>
      <trkpt lat="44.30458" lon="3.29963">
        <ele>460</ele>
        <time>2017-02-27T16:38:18Z</time>
      </trkpt>
      <trkpt lat="44.30375" lon="3.2987">
        <ele>457</ele>
        <time>2017-02-27T16:40:18Z</time>
      </trkpt>
      <trkpt lat="44.30103" lon="3.29731">
        <ele>467</ele>
        <time>2017-02-27T16:42:18Z</time>
      </trkpt>
      <trkpt lat="44.30009" lon="3.29609">
        <ele>466</ele>
        <time>2017-02-27T16:44:18Z</time>
      </trkpt>
      <trkpt lat="44.2998" lon="3.2951">
        <ele>462</ele>
        <time>2017-02-27T16:46:18Z</time>
      </trkpt>
      <trkpt lat="44.29951" lon="3.29391">
        <ele>462</ele>
        <time>2017-02-27T16:48:18Z</time>
      </trkpt>
      <trkpt lat="44.29943" lon="3.29443">
        <ele>473</ele>
        <time>2017-02-27T16:50:18Z</time>
      </trkpt>
      <trkpt lat="44.29906" lon="3.29431">
        <ele>486</ele>
        <time>2017-02-27T16:52:18Z</time>
      </trkpt>
      <trkpt lat="44.29854" lon="3.29426">
        <ele>503</ele>
        <time>2017-02-27T16:54:18Z</time>
      </trkpt>
      <trkpt lat="44.29876" lon="3.29353">
        <ele>483</ele>
        <time>2017-02-27T16:56:18Z</time>
      </trkpt>
      <trkpt lat="44.29862" lon="3.29316">
        <ele>481</ele>
        <time>2017-02-27T16:58:18Z</time>
      </trkpt>
      <trkpt lat="44.29762" lon="3.29207">
        <ele>492</ele>
        <time>2017-02-27T17:00:18Z</time>
      </trkpt>
      <trkpt lat="44.29723" lon="3.29098">
        <ele>473</ele>
        <time>2017-02-27T17:02:18Z</time>
      </trkpt>
      <trkpt lat="44.29672" lon="3.29054">
        <ele>484</ele>
        <time>2017-02-27T17:04:18Z</time>
      </trkpt>
      <trkpt lat="44.29632" lon="3.28923">
        <ele>497</ele>
        <time>2017-02-27T17:06:18Z</time>
      </trkpt>
      <trkpt lat="44.29647" lon="3.28714">
        <ele>489</ele>
        <time>2017-02-27T17:08:18Z</time>
      </trkpt>
      <trkpt lat="44.2961" lon="3.28646">
        <ele>510</ele>
        <time>2017-02-27T17:10:18Z</time>
      </trkpt>
      <trkpt lat="44.29633" lon="3.28572">
        <ele>497</ele>
        <time>2017-02-27T17:12:18Z</time>
      </trkpt>
      <trkpt lat="44.29639" lon="3.28406">
        <ele>495</ele>
        <time>2017-02-27T17:14:18Z</time>
      </trkpt>
      <trkpt lat="44.29596" lon="3.28314">
        <ele>519</ele>
        <time>2017-02-27T17:16:18Z</time>
      </trkpt>
      <trkpt lat="44.29606" lon="3.28256">
        <ele>520</ele>
        <time>2017-02-27T17:18:18Z</time>
      </trkpt>
      <trkpt lat="44.29648" lon="3.28206">
        <ele>502</ele>
        <time>2017-02-27T17:20:18Z</time>
      </trkpt>
      <trkpt lat="44.29654" lon="3.28122">
        <ele>520</ele>
        <time>2017-02-27T17:22:18Z</time>
      </trkpt>
      <trkpt lat="44.29753" lon="3.28028">
        <ele>498</ele>
        <time>2017-02-27T17:24:18Z</time>
      </trkpt>
      <trkpt lat="44.29767" lon="3.27969">
        <ele>510</ele>
        <time>2017-02-27T17:26:18Z</time>
      </trkpt>
      <trkpt lat="44.29821" lon="3.27897">
        <ele>492</ele>
        <time>2017-02-27T17:28:18Z</time>
      </trkpt>
      <trkpt lat="44.29832" lon="3.27759">
        <ele>506</ele>
        <time>2017-02-27T17:30:18Z</time>
      </trkpt>
      <trkpt lat="44.29896" lon="3.27619">
        <ele>476</ele>
        <time>2017-02-27T17:32:18Z</time>
      </trkpt>
      <trkpt lat="44.29909" lon="3.27498">
        <ele>467</ele>
        <time>2017-02-27T17:34:18Z</time>
      </trkpt>
      <trkpt lat="44.30113" lon="3.27128">
        <ele>460</ele>
        <time>2017-02-27T17:36:18Z</time>
      </trkpt>
      <trkpt lat="44.30167" lon="3.26903">
        <ele>484</ele>
        <time>2017-02-27T17:38:18Z</time>
      </trkpt>
      <trkpt lat="44.30283" lon="3.26715">
        <ele>493</ele>
        <time>2017-02-27T17:40:18Z</time>
      </trkpt>
      <trkpt lat="44.3034" lon="3.26662">
        <ele>483</ele>
        <time>2017-02-27T17:42:18Z</time>
      </trkpt>
      <trkpt lat="44.3032" lon="3.26608">
        <ele>506</ele>
        <time>2017-02-27T17:44:18Z</time>
      </trkpt>
      <trkpt lat="44.30372" lon="3.26578">
        <ele>491</ele>
        <time>2017-02-27T17:46:18Z</time>
      </trkpt>
      <trkpt lat="44.30402" lon="3.26476">
        <ele>500</ele>
        <time>2017-02-27T17:48:18Z</time>
      </trkpt>
      <trkpt lat="44.30408" lon="3.26474">
        <ele>496</ele>
        <time>2017-02-27T17:50:18Z</time>
      </trkpt>
      <trkpt lat="44.30431" lon="3.26244">
        <ele>504</ele>
        <time>2017-02-27T17:52:18Z</time>
      </trkpt>
      <trkpt lat="44.30386" lon="3.26187">
        <ele>528</ele>
        <time>2017-02-27T17:54:18Z</time>
      </trkpt>
      <trkpt lat="44.30432" lon="3.26118">
        <ele>502</ele>
        <time>2017-02-27T17:56:18Z</time>
      </trkpt>
      <trkpt lat="44.30385" lon="3.26016">
        <ele>522</ele>
        <time>2017-02-27T17:58:18Z</time>
      </trkpt>
      <trkpt lat="44.30368" lon="3.25807">
        <ele>515</ele>
        <time>2017-02-27T18:00:18Z</time>
      </trkpt>
      <trkpt lat="44.30332" lon="3.2575">
        <ele>526</ele>
        <time>2017-02-27T18:02:18Z</time>
      </trkpt>
      <trkpt lat="44.30307" lon="3.25594">
        <ele>542</ele>
        <time>2017-02-27T18:04:18Z</time>
      </trkpt>
      <trkpt lat="44.30277" lon="3.25398">
        <ele>553</ele>
        <time>2017-02-27T18:06:18Z</time>
      </trkpt>
      <trkpt lat="44.30321" lon="3.25357">
        <ele>552</ele>
        <time>2017-02-27T18:08:18Z</time>
      </trkpt>
      <trkpt lat="44.30419" lon="3.25344">
        <ele>535</ele>
        <time>2017-02-27T18:10:18Z</time>
      </trkpt>
      <trkpt lat="44.30441" lon="3.25281">
        <ele>550</ele>
        <time>2017-02-27T18:12:18Z</time>
      </trkpt>
      <trkpt lat="44.30524" lon="3.25166">
        <ele>547</ele>
        <time>2017-02-27T18:14:18Z</time>
      </trkpt>
      <trkpt lat="44.30562" lon="3.25067">
        <ele>541</ele>
        <time>2017-02-27T18:16:18Z</time>
      </trkpt>
      <trkpt lat="44.3055" lon="3.24861">
        <ele>579</ele>
        <time>2017-02-27T18:18:18Z</time>
      </trkpt>
      <trkpt lat="44.30578" lon="3.24766">
        <ele>541</ele>
        <time>2017-02-27T18:20:18Z</time>
      </trkpt>
      <trkpt lat="44.304" lon="3.2471">
        <ele>600</ele>
        <time>2017-02-27T18:22:18Z</time>
      </trkpt>
      <trkpt lat="44.30315" lon="3.24621">
        <ele>609</ele>
        <time>2017-02-27T18:24:18Z</time>
      </trkpt>
      <trkpt lat="44.30275" lon="3.24467">
        <ele>599</ele>
        <time>2017-02-27T18:26:18Z</time>
      </trkpt>
      <trkpt lat="44.30239" lon="3.24246">
        <ele>578</ele>
        <time>2017-02-27T18:28:18Z</time>
      </trkpt>
      <trkpt lat="44.3022" lon="3.2419">
        <ele>567</ele>
        <time>2017-02-27T18:30:18Z</time>
      </trkpt>
      <trkpt lat="44.30161" lon="3.24172">
        <ele>590</ele>
        <time>2017-02-27T18:32:18Z</time>
      </trkpt>
      <trkpt lat="44.30094" lon="3.24202">
        <ele>598</ele>
        <time>2017-02-27T18:34:18Z</time>
      </trkpt>
      <trkpt lat="44.3003" lon="3.24225">
        <ele>589</ele>
        <time>2017-02-27T18:36:18Z</time>
      </trkpt>
      <trkpt lat="44.29977" lon="3.24317">
        <ele>603</ele>
        <time>2017-02-27T18:38:18Z</time>
      </trkpt>
      <trkpt lat="44.29942" lon="3.24333">
        <ele>599</ele>
        <time>2017-02-27T18:40:18Z</time>
      </trkpt>
      <trkpt lat="44.29928" lon="3.24374">
        <ele>608</ele>
        <time>2017-02-27T18:42:18Z</time>
      </trkpt>
      <trkpt lat="44.29881" lon="3.24404">
        <ele>611</ele>
        <time>2017-02-27T18:44:18Z</time>
      </trkpt>
      <trkpt lat="44.29748" lon="3.2429">
        <ele>554</ele>
        <time>2017-02-27T18:46:18Z</time>
      </trkpt>
      <trkpt lat="44.2966" lon="3.24341">
        <ele>583</ele>
        <time>2017-02-27T18:48:18Z</time>
      </trkpt>
      <trkpt lat="44.29636" lon="3.24313">
        <ele>578</ele>
        <time>2017-02-27T18:50:18Z</time>
      </trkpt>
      <trkpt lat="44.29551" lon="3.24224">
        <ele>568</ele>
        <time>2017-02-27T18:52:18Z</time>
      </trkpt>
      <trkpt lat="44.29536" lon="3.24205">
        <ele>561</ele>
        <time>2017-02-27T18:54:18Z</time>
      </trkpt>
      <trkpt lat="44.29551" lon="3.24171">
        <ele>547</ele>
        <time>2017-02-27T18:56:18Z</time>
      </trkpt>
      <trkpt lat="44.2953" lon="3.24161">
        <ele>540</ele>
        <time>2017-02-27T18:58:18Z</time>
      </trkpt>
      <trkpt lat="44.29499" lon="3.24177">
        <ele>548</ele>
        <time>2017-02-27T19:00:18Z</time>
      </trkpt>
      <trkpt lat="44.29488" lon="3.24216">
        <ele>562</ele>
        <time>2017-02-27T19:02:18Z</time>
      </trkpt>
      <trkpt lat="44.29427" lon="3.24298">
        <ele>584</ele>
        <time>2017-02-27T19:04:18Z</time>
      </trkpt>
      <trkpt lat="44.29375" lon="3.24331">
        <ele>594</ele>
        <time>2017-02-27T19:06:18Z</time>
      </trkpt>
      <trkpt lat="44.29296" lon="3.24284">
        <ele>588</ele>
        <time>2017-02-27T19:08:18Z</time>
      </trkpt>
      <trkpt lat="44.29313" lon="3.24211">
        <ele>559</ele>
        <time>2017-02-27T19:10:18Z</time>
      </trkpt>
      <trkpt lat="44.29277" lon="3.24162">
        <ele>571</ele>
        <time>2017-02-27T19:12:18Z</time>
      </trkpt>
      <trkpt lat="44.29272" lon="3.24146">
        <ele>570</ele>
        <time>2017-02-27T19:14:18Z</time>
      </trkpt>
      <trkpt lat="44.29259" lon="3.24072">
        <ele>557</ele>
        <time>2017-02-27T19:16:18Z</time>
      </trkpt>
      <trkpt lat="44.29095" lon="3.24073">
        <ele>567</ele>
        <time>2017-02-27T19:18:18Z</time>
      </trkpt>
      <trkpt lat="44.29082" lon="3.24058">
        <ele>562</ele>
        <time>2017-02-27T19:20:18Z</time>
      </trkpt>
      <trkpt lat="44.29028" lon="3.23987">
        <ele>552</ele>
        <time>2017-02-27T19:22:18Z</time>
      </trkpt>
      <trkpt lat="44.28942" lon="3.23967">
        <ele>545</ele>
        <time>2017-02-27T19:24:18Z</time>
      </trkpt>
      <trkpt lat="44.28867" lon="3.24088">
        <ele>558</ele>
        <time>2017-02-27T19:26:18Z</time>
      </trkpt>
      <trkpt lat="44.28785" lon="3.2414">
        <ele>568</ele>
        <time>2017-02-27T19:28:18Z</time>
      </trkpt>
      <trkpt lat="44.28821" lon="3.23967">
        <ele>531</ele>
        <time>2017-02-27T19:30:18Z</time>
      </trkpt>
      <trkpt lat="44.288" lon="3.23845">
        <ele>506</ele>
        <time>2017-02-27T19:32:18Z</time>
      </trkpt>
      <trkpt lat="44.28598" lon="3.23922">
        <ele>517</ele>
        <time>2017-02-27T19:34:18Z</time>
      </trkpt>
      <trkpt lat="44.2857" lon="3.23908">
        <ele>515</ele>
        <time>2017-02-27T19:36:18Z</time>
      </trkpt>
      <trkpt lat="44.28556" lon="3.23879">
        <ele>515</ele>
        <time>2017-02-27T19:38:18Z</time>
      </trkpt>
      <trkpt lat="44.28554" lon="3.23868">
        <ele>513</ele>
        <time>2017-02-27T19:40:18Z</time>
      </trkpt>
      <trkpt lat="44.28552" lon="3.23716">
        <ele>487</ele>
        <time>2017-02-27T19:42:18Z</time>
      </trkpt>
      <trkpt lat="44.28448" lon="3.23553">
        <ele>463</ele>
        <time>2017-02-27T19:44:18Z</time>
      </trkpt>
      <trkpt lat="44.2841" lon="3.23533">
        <ele>467</ele>
        <time>2017-02-27T19:46:18Z</time>
      </trkpt>
      <trkpt lat="44.28342" lon="3.23425">
        <ele>454</ele>
        <time>2017-02-27T19:48:18Z</time>
      </trkpt>
      <trkpt lat="44.28055" lon="3.23194">
        <ele>440</ele>
        <time>2017-02-27T19:50:18Z</time>
      </trkpt>
      <trkpt lat="44.2786" lon="3.23094">
        <ele>438</ele>
        <time>2017-02-27T19:52:18Z</time>
      </trkpt>
      <trkpt lat="44.2772" lon="3.22844">
        <ele>420</ele>
        <time>2017-02-27T19:54:18Z</time>
      </trkpt>
      <trkpt lat="44.27601" lon="3.22774">
        <ele>421</ele>
        <time>2017-02-27T19:56:18Z</time>
      </trkpt>
      <trkpt lat="44.27439" lon="3.22763">
        <ele>427</ele>
        <time>2017-02-27T19:58:18Z</time>
      </trkpt>
      <trkpt lat="44.27363" lon="3.22795">
        <ele>435</ele>
        <time>2017-02-27T20:00:18Z</time>
      </trkpt>
      <trkpt lat="44.2706" lon="3.22859">
        <ele>445</ele>
        <time>2017-02-27T20:02:18Z</time>
      </trkpt>
      <trkpt lat="44.26969" lon="3.22857">
        <ele>441</ele>
        <time>2017-02-27T20:04:18Z</time>
      </trkpt>
      <trkpt lat="44.26716" lon="3.22823">
        <ele>435</ele>
        <time>2017-02-27T20:06:18Z</time>
      </trkpt>
      <trkpt lat="44.26561" lon="3.22734">
        <ele>418</ele>
        <time>2017-02-27T20:08:18Z</time>
      </trkpt>
      <trkpt lat="44.26448" lon="3.22734">
        <ele>416</ele>
        <time>2017-02-27T20:10:18Z</time>
      </trkpt>
      <trkpt lat="44.26223" lon="3.22852">
        <ele>418</ele>
        <time>2017-02-27T20:12:18Z</time>
      </trkpt>
      <trkpt lat="44.26043" lon="3.22896">
        <ele>417</ele>
        <time>2017-02-27T20:14:18Z</time>
      </trkpt>
      <trkpt lat="44.25853" lon="3.23004">
        <ele>419</ele>
        <time>2017-02-27T20:16:18Z</time>
      </trkpt>
      <trkpt lat="44.25639" lon="3.23173">
        <ele>424</ele>
        <time>2017-02-27T20:18:18Z</time>
      </trkpt>
      <trkpt lat="44.25488" lon="3.23255">
        <ele>428</ele>
        <time>2017-02-27T20:20:18Z</time>
      </trkpt>
      <trkpt lat="44.25421" lon="3.23348">
        <ele>443</ele>
        <time>2017-02-27T20:22:18Z</time>
      </trkpt>
      <trkpt lat="44.25326" lon="3.23427">
        <ele>454</ele>
        <time>2017-02-27T20:24:18Z</time>
      </trkpt>
      <trkpt lat="44.25286" lon="3.23495">
        <ele>480</ele>
        <time>2017-02-27T20:26:18Z</time>
      </trkpt>
      <trkpt lat="44.25265" lon="3.23484">
        <ele>477</ele>
        <time>2017-02-27T20:28:18Z</time>
      </trkpt>
      <trkpt lat="44.25243" lon="3.23433">
        <ele>459</ele>
        <time>2017-02-27T20:30:18Z</time>
      </trkpt>
      <trkpt lat="44.25154" lon="3.23385">
        <ele>458</ele>
        <time>2017-02-27T20:32:18Z</time>
      </trkpt>
      <trkpt lat="44.24985" lon="3.23364">
        <ele>469</ele>
        <time>2017-02-27T20:34:18Z</time>
      </trkpt>
      <trkpt lat="44.2491" lon="3.23329">
        <ele>454</ele>
        <time>2017-02-27T20:36:18Z</time>
      </trkpt>
      <trkpt lat="44.24446" lon="3.23387">
        <ele>446</ele>
        <time>2017-02-27T20:38:18Z</time>
      </trkpt>
      <trkpt lat="44.24374" lon="3.23323">
        <ele>428</ele>
        <time>2017-02-27T20:40:18Z</time>
      </trkpt>
      <trkpt lat="44.24008" lon="3.2321">
        <ele>435</ele>
        <time>2017-02-27T20:42:18Z</time>
      </trkpt>
      <trkpt lat="44.23608" lon="3.23185">
        <ele>427</ele>
        <time>2017-02-27T20:44:18Z</time>
      </trkpt>
      <trkpt lat="44.23571" lon="3.23161">
        <ele>421</ele>
        <time>2017-02-27T20:46:18Z</time>
      </trkpt>
      <trkpt lat="44.23573" lon="3.23138">
        <ele>418</ele>
        <time>2017-02-27T20:48:18Z</time>
      </trkpt>
      <trkpt lat="44.23571" lon="3.23161">
        <ele>421</ele>
        <time>2017-02-27T20:50:18Z</time>
      </trkpt>
      <trkpt lat="44.23232" lon="3.23128">
        <ele>427</ele>
        <time>2017-02-27T20:52:18Z</time>
      </trkpt>
      <trkpt lat="44.22888" lon="3.23108">
        <ele>420</ele>
        <time>2017-02-27T20:54:18Z</time>
      </trkpt>
      <trkpt lat="44.22747" lon="3.23059">
        <ele>413</ele>
        <time>2017-02-27T20:56:18Z</time>
      </trkpt>
      <trkpt lat="44.22645" lon="3.23057">
        <ele>419</ele>
        <time>2017-02-27T20:58:18Z</time>
      </trkpt>
      <trkpt lat="44.22612" lon="3.23053">
        <ele>420</ele>
        <time>2017-02-27T21:00:18Z</time>
      </trkpt>
      <trkpt lat="44.22441" lon="3.22921">
        <ele>411</ele>
        <time>2017-02-27T21:02:18Z</time>
      </trkpt>
      <trkpt lat="44.22398" lon="3.22918">
        <ele>421</ele>
        <time>2017-02-27T21:04:18Z</time>
      </trkpt>
      <trkpt lat="44.22462" lon="3.22987">
        <ele>424</ele>
        <time>2017-02-27T21:06:18Z</time>
      </trkpt>
      <trkpt lat="44.22389" lon="3.22965">
        <ele>439</ele>
        <time>2017-02-27T21:08:18Z</time>
      </trkpt>
      <trkpt lat="44.2226" lon="3.22695">
        <ele>441</ele>
        <time>2017-02-27T21:10:18Z</time>
      </trkpt>
      <trkpt lat="44.22237" lon="3.22586">
        <ele>425</ele>
        <time>2017-02-27T21:12:18Z</time>
      </trkpt>
      <trkpt lat="44.22139" lon="3.22474">
        <ele>428</ele>
        <time>2017-02-27T21:14:18Z</time>
      </trkpt>
      <trkpt lat="44.22052" lon="3.22437">
        <ele>431</ele>
        <time>2017-02-27T21:16:18Z</time>
      </trkpt>
      <trkpt lat="44.21973" lon="3.22386">
        <ele>418</ele>
        <time>2017-02-27T21:18:18Z</time>
      </trkpt>
      <trkpt lat="44.21761" lon="3.22512">
        <ele>429</ele>
        <time>2017-02-27T21:20:18Z</time>
      </trkpt>
      <trkpt lat="44.21718" lon="3.22619">
        <ele>452</ele>
        <time>2017-02-27T21:22:18Z</time>
      </trkpt>
      <trkpt lat="44.21685" lon="3.2256">
        <ele>435</ele>
        <time>2017-02-27T21:24:18Z</time>
      </trkpt>
      <trkpt lat="44.21654" lon="3.22552">
        <ele>431</ele>
        <time>2017-02-27T21:26:18Z</time>
      </trkpt>
      <trkpt lat="44.21624" lon="3.22599">
        <ele>441</ele>
        <time>2017-02-27T21:28:18Z</time>
      </trkpt>
      <trkpt lat="44.21619" lon="3.22667">
        <ele>460</ele>
        <time>2017-02-27T21:30:18Z</time>
      </trkpt>
      <trkpt lat="44.21616" lon="3.22673">
        <ele>461</ele>
        <time>2017-02-27T21:32:18Z</time>
      </trkpt>
      <trkpt lat="44.21558" lon="3.22603">
        <ele>438</ele>
        <time>2017-02-27T21:34:18Z</time>
      </trkpt>
      <trkpt lat="44.21477" lon="3.22589">
        <ele>430</ele>
        <time>2017-02-27T21:36:18Z</time>
      </trkpt>
      <trkpt lat="44.21425" lon="3.22679">
        <ele>457</ele>
        <time>2017-02-27T21:38:18Z</time>
      </trkpt>
      <trkpt lat="44.21386" lon="3.22605">
        <ele>436</ele>
        <time>2017-02-27T21:40:18Z</time>
      </trkpt>
      <trkpt lat="44.21282" lon="3.22627">
        <ele>457</ele>
        <time>2017-02-27T21:42:18Z</time>
      </trkpt>
      <trkpt lat="44.21224" lon="3.22605">
        <ele>450</ele>
        <time>2017-02-27T21:44:18Z</time>
      </trkpt>
      <trkpt lat="44.21112" lon="3.22684">
        <ele>473</ele>
        <time>2017-02-27T21:46:18Z</time>
      </trkpt>
      <trkpt lat="44.21109" lon="3.22682">
        <ele>473</ele>
        <time>2017-02-27T21:48:18Z</time>
      </trkpt>
      <trkpt lat="44.21099" lon="3.22547">
        <ele>449</ele>
        <time>2017-02-27T21:50:18Z</time>
      </trkpt>
      <trkpt lat="44.21052" lon="3.2257">
        <ele>463</ele>
        <time>2017-02-27T21:52:18Z</time>
      </trkpt>
      <trkpt lat="44.21018" lon="3.22487">
        <ele>452</ele>
        <time>2017-02-27T21:54:18Z</time>
      </trkpt>
      <trkpt lat="44.2096" lon="3.22459">
        <ele>448</ele>
        <time>2017-02-27T21:56:18Z</time>
      </trkpt>
      <trkpt lat="44.20871" lon="3.22509">
        <ele>461</ele>
        <time>2017-02-27T21:58:18Z</time>
      </trkpt>
      <trkpt lat="44.20838" lon="3.22495">
        <ele>458</ele>
        <time>2017-02-27T22:00:18Z</time>
      </trkpt>
      <trkpt lat="44.20821" lon="3.22443">
        <ele>456</ele>
        <time>2017-02-27T22:02:18Z</time>
      </trkpt>
      <trkpt lat="44.20812" lon="3.22369">
        <ele>450</ele>
        <time>2017-02-27T22:04:18Z</time>
      </trkpt>
      <trkpt lat="44.20829" lon="3.2233">
        <ele>445</ele>
        <time>2017-02-27T22:06:18Z</time>
      </trkpt>
      <trkpt lat="44.20813" lon="3.22297">
        <ele>437</ele>
        <time>2017-02-27T22:08:18Z</time>
      </trkpt>
      <trkpt lat="44.20725" lon="3.22326">
        <ele>453</ele>
        <time>2017-02-27T22:10:18Z</time>
      </trkpt>
      <trkpt lat="44.20542" lon="3.22169">
        <ele>439</ele>
        <time>2017-02-27T22:12:18Z</time>
      </trkpt>
      <trkpt lat="44.20412" lon="3.22152">
        <ele>440</ele>
        <time>2017-02-27T22:14:18Z</time>
      </trkpt>
      <trkpt lat="44.20383" lon="3.2209">
        <ele>436</ele>
        <time>2017-02-27T22:16:18Z</time>
      </trkpt>
      <trkpt lat="44.20317" lon="3.22051">
        <ele>451</ele>
        <time>2017-02-27T22:18:18Z</time>
      </trkpt>
      <trkpt lat="44.20272" lon="3.21849">
        <ele>448</ele>
        <time>2017-02-27T22:20:18Z</time>
      </trkpt>
      <trkpt lat="44.20169" lon="3.21734">
        <ele>460</ele>
        <time>2017-02-27T22:22:18Z</time>
      </trkpt>
      <trkpt lat="44.20073" lon="3.21678">
        <ele>459</ele>
        <time>2017-02-27T22:24:18Z</time>
      </trkpt>
      <trkpt lat="44.20018" lon="3.21688">
        <ele>469</ele>
        <time>2017-02-27T22:26:18Z</time>
      </trkpt>
      <trkpt lat="44.19989" lon="3.21644">
        <ele>458</ele>
        <time>2017-02-27T22:28:18Z</time>
      </trkpt>
      <trkpt lat="44.19948" lon="3.21617">
        <ele>454</ele>
        <time>2017-02-27T22:30:18Z</time>
      </trkpt>
      <trkpt lat="44.19785" lon="3.21594">
        <ele>476</ele>
        <time>2017-02-27T22:32:18Z</time>
      </trkpt>
      <trkpt lat="44.19784" lon="3.21508">
        <ele>446</ele>
        <time>2017-02-27T22:34:18Z</time>
      </trkpt>
      <trkpt lat="44.19651" lon="3.21421">
        <ele>451</ele>
        <time>2017-02-27T22:36:18Z</time>
      </trkpt>
      <trkpt lat="44.19444" lon="3.21202">
        <ele>450</ele>
        <time>2017-02-27T22:38:18Z</time>
      </trkpt>
      <trkpt lat="44.19314" lon="3.20875">
        <ele>419</ele>
        <time>2017-02-27T22:40:18Z</time>
      </trkpt>
      <trkpt lat="44.19277" lon="3.20774">
        <ele>409</ele>
        <time>2017-02-27T22:42:18Z</time>
      </trkpt>
      <trkpt lat="44.19328" lon="3.20848">
        <ele>410</ele>
        <time>2017-02-27T22:44:18Z</time>
      </trkpt>
      <trkpt lat="44.19431" lon="3.20801">
        <ele>396</ele>
        <time>2017-02-27T22:46:18Z</time>
      </trkpt>
      <trkpt lat="44.19467" lon="3.20833">
        <ele>400</ele>
        <time>2017-02-27T22:48:18Z</time>
      </trkpt>
      <trkpt lat="44.19447" lon="3.20489">
        <ele>395</ele>
        <time>2017-02-27T22:50:18Z</time>
      </trkpt>
      <trkpt lat="44.19469" lon="3.20421">
        <ele>398</ele>
        <time>2017-02-27T22:52:18Z</time>
      </trkpt>
      <trkpt lat="44.19495" lon="3.20402">
        <ele>401</ele>
        <time>2017-02-27T22:54:18Z</time>
      </trkpt>
      <trkpt lat="44.19539" lon="3.20231">
        <ele>408</ele>
        <time>2017-02-27T22:56:18Z</time>
      </trkpt>
      <trkpt lat="44.19578" lon="3.2016">
        <ele>413</ele>
        <time>2017-02-27T22:58:18Z</time>
      </trkpt>
      <trkpt lat="44.19648" lon="3.20127">
        <ele>430</ele>
        <time>2017-02-27T23:00:18Z</time>
      </trkpt>
      <trkpt lat="44.19682" lon="3.20049">
        <ele>431</ele>
        <time>2017-02-27T23:02:18Z</time>
      </trkpt>
      <trkpt lat="44.19836" lon="3.19998">
        <ele>458</ele>
        <time>2017-02-27T23:04:18Z</time>
      </trkpt>
      <trkpt lat="44.19857" lon="3.19923">
        <ele>456</ele>
        <time>2017-02-27T23:06:18Z</time>
      </trkpt>
      <trkpt lat="44.2001" lon="3.1983">
        <ele>476</ele>
        <time>2017-02-27T23:08:18Z</time>
      </trkpt>
      <trkpt lat="44.20048" lon="3.19736">
        <ele>481</ele>
        <time>2017-02-27T23:10:18Z</time>
      </trkpt>
      <trkpt lat="44.20033" lon="3.19676">
        <ele>479</ele>
        <time>2017-02-27T23:12:18Z</time>
      </trkpt>
      <trkpt lat="44.20064" lon="3.19612">
        <ele>485</ele>
        <time>2017-02-27T23:14:18Z</time>
      </trkpt>
      <trkpt lat="44.20076" lon="3.19571">
        <ele>485</ele>
        <time>2017-02-27T23:16:18Z</time>
      </trkpt>
      <trkpt lat="44.20172" lon="3.19476">
        <ele>494</ele>
        <time>2017-02-27T23:18:18Z</time>
      </trkpt>
      <trkpt lat="44.20198" lon="3.19387">
        <ele>491</ele>
        <time>2017-02-27T23:20:18Z</time>
      </trkpt>
      <trkpt lat="44.20244" lon="3.19349">
        <ele>495</ele>
        <time>2017-02-27T23:22:18Z</time>
      </trkpt>
      <trkpt lat="44.20344" lon="3.19274">
        <ele>489</ele>
        <time>2017-02-27T23:24:18Z</time>
      </trkpt>
      <trkpt lat="44.20416" lon="3.19317">
        <ele>490</ele>
        <time>2017-02-27T23:26:18Z</time>
      </trkpt>
      <trkpt lat="44.2044" lon="3.19306">
        <ele>488</ele>
        <time>2017-02-27T23:28:18Z</time>
      </trkpt>
      <trkpt lat="44.20482" lon="3.19254">
        <ele>482</ele>
        <time>2017-02-27T23:30:18Z</time>
      </trkpt>
      <trkpt lat="44.20482" lon="3.19165">
        <ele>474</ele>
        <time>2017-02-27T23:32:18Z</time>
      </trkpt>
      <trkpt lat="44.2064" lon="3.19002">
        <ele>474</ele>
        <time>2017-02-27T23:34:18Z</time>
      </trkpt>
      <trkpt lat="44.20656" lon="3.18967">
        <ele>470</ele>
        <time>2017-02-27T23:36:18Z</time>
      </trkpt>
      <trkpt lat="44.20808" lon="3.18842">
        <ele>475</ele>
        <time>2017-02-27T23:38:18Z</time>
      </trkpt>
      <trkpt lat="44.20809" lon="3.18832">
        <ele>474</ele>
        <time>2017-02-27T23:40:18Z</time>
      </trkpt>
      <trkpt lat="44.20918" lon="3.18796">
        <ele>485</ele>
        <time>2017-02-27T23:42:18Z</time>
      </trkpt>
      <trkpt lat="44.20962" lon="3.18731">
        <ele>484</ele>
        <time>2017-02-27T23:44:18Z</time>
      </trkpt>
      <trkpt lat="44.21091" lon="3.18707">
        <ele>484</ele>
        <time>2017-02-27T23:46:18Z</time>
      </trkpt>
      <trkpt lat="44.21179" lon="3.18596">
        <ele>479</ele>
        <time>2017-02-27T23:48:18Z</time>
      </trkpt>
      <trkpt lat="44.21343" lon="3.18538">
        <ele>500</ele>
        <time>2017-02-27T23:50:18Z</time>
      </trkpt>
      <trkpt lat="44.21425" lon="3.18555">
        <ele>505</ele>
        <time>2017-02-27T23:52:18Z</time>
      </trkpt>
      <trkpt lat="44.21601" lon="3.18389">
        <ele>522</ele>
        <time>2017-02-27T23:54:18Z</time>
      </trkpt>
      <trkpt lat="44.21637" lon="3.18387">
        <ele>523</ele>
        <time>2017-02-27T23:56:18Z</time>
      </trkpt>
      <trkpt lat="44.21656" lon="3.18312">
        <ele>530</ele>
        <time>2017-02-27T23:58:18Z</time>
      </trkpt>
      <trkpt lat="44.21768" lon="3.18236">
        <ele>541</ele>
        <time>2017-02-28T00:00:18Z</time>
      </trkpt>
      <trkpt lat="44.21828" lon="3.18138">
        <ele>554</ele>
        <time>2017-02-28T00:02:18Z</time>
      </trkpt>
      <trkpt lat="44.21912" lon="3.18073">
        <ele>576</ele>
        <time>2017-02-28T00:04:18Z</time>
      </trkpt>
      <trkpt lat="44.21938" lon="3.1815">
        <ele>566</ele>
        <time>2017-02-28T00:06:18Z</time>
      </trkpt>
      <trkpt lat="44.21974" lon="3.18167">
        <ele>574</ele>
        <time>2017-02-28T00:08:18Z</time>
      </trkpt>
      <trkpt lat="44.21985" lon="3.18143">
        <ele>583</ele>
        <time>2017-02-28T00:10:18Z</time>
      </trkpt>
      <trkpt lat="44.22001" lon="3.18145">
        <ele>588</ele>
        <time>2017-02-28T00:12:18Z</time>
      </trkpt>
      <trkpt lat="44.22049" lon="3.18142">
        <ele>592</ele>
        <time>2017-02-28T00:14:18Z</time>
      </trkpt>
      <trkpt lat="44.22085" lon="3.18085">
        <ele>609</ele>
        <time>2017-02-28T00:16:18Z</time>
      </trkpt>
      <trkpt lat="44.22154" lon="3.17998">
        <ele>620</ele>
        <time>2017-02-28T00:18:18Z</time>
      </trkpt>
      <trkpt lat="44.22223" lon="3.17942">
        <ele>632</ele>
        <time>2017-02-28T00:20:18Z</time>
      </trkpt>
      <trkpt lat="44.22382" lon="3.17958">
        <ele>640</ele>
        <time>2017-02-28T00:22:18Z</time>
      </trkpt>
      <trkpt lat="44.22417" lon="3.17899">
        <ele>649</ele>
        <time>2017-02-28T00:24:18Z</time>
      </trkpt>
      <trkpt lat="44.22512" lon="3.1784">
        <ele>671</ele>
        <time>2017-02-28T00:26:18Z</time>
      </trkpt>
      <trkpt lat="44.22635" lon="3.17874">
        <ele>690</ele>
        <time>2017-02-28T00:28:18Z</time>
      </trkpt>
      <trkpt lat="44.22654" lon="3.17876">
        <ele>693</ele>
        <time>2017-02-28T00:30:18Z</time>
      </trkpt>
      <trkpt lat="44.22735" lon="3.17889">
        <ele>702</ele>
        <time>2017-02-28T00:32:18Z</time>
      </trkpt>
      <trkpt lat="44.22721" lon="3.17944">
        <ele>696</ele>
        <time>2017-02-28T00:34:18Z</time>
      </trkpt>
      <trkpt lat="44.22666" lon="3.17962">
        <ele>694</ele>
        <time>2017-02-28T00:36:18Z</time>
      </trkpt>
      <trkpt lat="44.22749" lon="3.17954">
        <ele>700</ele>
        <time>2017-02-28T00:38:18Z</time>
      </trkpt>
      <trkpt lat="44.22817" lon="3.17995">
        <ele>708</ele>
        <time>2017-02-28T00:40:18Z</time>
      </trkpt>
      <trkpt lat="44.22824" lon="3.18004">
        <ele>709</ele>
        <time>2017-02-28T00:42:18Z</time>
      </trkpt>
      <trkpt lat="44.22854" lon="3.18032">
        <ele>721</ele>
        <time>2017-02-28T00:44:18Z</time>
      </trkpt>
      <trkpt lat="44.22891" lon="3.18011">
        <ele>718</ele>
        <time>2017-02-28T00:46:18Z</time>
      </trkpt>
      <trkpt lat="44.22918" lon="3.17967">
        <ele>723</ele>
        <time>2017-02-28T00:48:18Z</time>
      </trkpt>
      <trkpt lat="44.22967" lon="3.1798">
        <ele>729</ele>
        <time>2017-02-28T00:50:18Z</time>
      </trkpt>
      <trkpt lat="44.23008" lon="3.17942">
        <ele>729</ele>
        <time>2017-02-28T00:52:18Z</time>
      </trkpt>
      <trkpt lat="44.23" lon="3.17907">
        <ele>727</ele>
        <time>2017-02-28T00:54:18Z</time>
      </trkpt>
      <trkpt lat="44.22863" lon="3.1794">
        <ele>719</ele>
        <time>2017-02-28T00:56:18Z</time>
      </trkpt>
      <trkpt lat="44.22923" lon="3.17884">
        <ele>739</ele>
        <time>2017-02-28T00:58:18Z</time>
      </trkpt>
      <trkpt lat="44.22995" lon="3.17851">
        <ele>747</ele>
        <time>2017-02-28T01:00:18Z</time>
      </trkpt>
      <trkpt lat="44.23005" lon="3.17851">
        <ele>748</ele>
        <time>2017-02-28T01:02:18Z</time>
      </trkpt>
      <trkpt lat="44.23097" lon="3.17902">
        <ele>746</ele>
        <time>2017-02-28T01:04:18Z</time>
      </trkpt>
      <trkpt lat="44.23148" lon="3.17886">
        <ele>757</ele>
        <time>2017-02-28T01:06:18Z</time>
      </trkpt>
      <trkpt lat="44.23261" lon="3.17903">
        <ele>760</ele>
        <time>2017-02-28T01:08:18Z</time>
      </trkpt>
      <trkpt lat="44.23332" lon="3.17812">
        <ele>776</ele>
        <time>2017-02-28T01:10:18Z</time>
      </trkpt>
      <trkpt lat="44.23393" lon="3.17785">
        <ele>780</ele>
        <time>2017-02-28T01:12:18Z</time>
      </trkpt>
      <trkpt lat="44.23515" lon="3.17634">
        <ele>793</ele>
        <time>2017-02-28T01:14:18Z</time>
      </trkpt>
      <trkpt lat="44.23628" lon="3.17653">
        <ele>798</ele>
        <time>2017-02-28T01:16:18Z</time>
      </trkpt>
      <trkpt lat="44.23867" lon="3.17424">
        <ele>826</ele>
        <time>2017-02-28T01:18:18Z</time>
      </trkpt>
      <trkpt lat="44.23975" lon="3.17229">
        <ele>839</ele>
        <time>2017-02-28T01:20:18Z</time>
      </trkpt>
      <trkpt lat="44.24113" lon="3.17035">
        <ele>849</ele>
        <time>2017-02-28T01:22:18Z</time>
      </trkpt>
      <trkpt lat="44.24232" lon="3.16938">
        <ele>855</ele>
        <time>2017-02-28T01:24:18Z</time>
      </trkpt>
      <trkpt lat="44.24285" lon="3.16965">
        <ele>856</ele>
        <time>2017-02-28T01:26:18Z</time>
      </trkpt>
      <trkpt lat="44.24329" lon="3.17059">
        <ele>856</ele>
        <time>2017-02-28T01:28:18Z</time>
      </trkpt>
      <trkpt lat="44.24333" lon="3.17135">
        <ele>854</ele>
        <time>2017-02-28T01:30:18Z</time>
      </trkpt>
      <trkpt lat="44.243" lon="3.17385">
        <ele>856</ele>
        <time>2017-02-28T01:32:18Z</time>
      </trkpt>
      <trkpt lat="44.24306" lon="3.17414">
        <ele>857</ele>
        <time>2017-02-28T01:34:18Z</time>
      </trkpt>
      <trkpt lat="44.24307" lon="3.17419">
        <ele>857</ele>
        <time>2017-02-28T01:36:18Z</time>
      </trkpt>
      <trkpt lat="44.24481" lon="3.17813">
        <ele>853</ele>
        <time>2017-02-28T01:38:18Z</time>
      </trkpt>
      <trkpt lat="44.24502" lon="3.18306">
        <ele>880</ele>
        <time>2017-02-28T01:40:18Z</time>
      </trkpt>
      <trkpt lat="44.24501" lon="3.18366">
        <ele>878</ele>
        <time>2017-02-28T01:42:18Z</time>
      </trkpt>
      <trkpt lat="44.24405" lon="3.18452">
        <ele>871</ele>
        <time>2017-02-28T01:44:18Z</time>
      </trkpt>
      <trkpt lat="44.24355" lon="3.18525">
        <ele>877</ele>
        <time>2017-02-28T01:46:18Z</time>
      </trkpt>
      <trkpt lat="44.2428" lon="3.18576">
        <ele>885</ele>
        <time>2017-02-28T01:48:18Z</time>
      </trkpt>
      <trkpt lat="44.24257" lon="3.18618">
        <ele>887</ele>
        <time>2017-02-28T01:50:18Z</time>
      </trkpt>
      <trkpt lat="44.24194" lon="3.18648">
        <ele>891</ele>
        <time>2017-02-28T01:52:18Z</time>
      </trkpt>
      <trkpt lat="44.2419" lon="3.18651">
        <ele>891</ele>
        <time>2017-02-28T01:54:18Z</time>
      </trkpt>
      <trkpt lat="44.2394" lon="3.19172">
        <ele>897</ele>
        <time>2017-02-28T01:56:18Z</time>
      </trkpt>
      <trkpt lat="44.23919" lon="3.19359">
        <ele>906</ele>
        <time>2017-02-28T01:58:18Z</time>
      </trkpt>
      <trkpt lat="44.23853" lon="3.1942">
        <ele>909</ele>
        <time>2017-02-28T02:00:18Z</time>
      </trkpt>
      <trkpt lat="44.23748" lon="3.19422">
        <ele>917</ele>
        <time>2017-02-28T02:02:18Z</time>
      </trkpt>
      <trkpt lat="44.23634" lon="3.19466">
        <ele>925</ele>
        <time>2017-02-28T02:04:18Z</time>
      </trkpt>
      <trkpt lat="44.2346" lon="3.19555">
        <ele>921</ele>
        <time>2017-02-28T02:06:18Z</time>
      </trkpt>
      <trkpt lat="44.23275" lon="3.19712">
        <ele>927</ele>
        <time>2017-02-28T02:08:18Z</time>
      </trkpt>
      <trkpt lat="44.23271" lon="3.19753">
        <ele>927</ele>
        <time>2017-02-28T02:10:18Z</time>
      </trkpt>
      <trkpt lat="44.23305" lon="3.19778">
        <ele>929</ele>
        <time>2017-02-28T02:12:18Z</time>
      </trkpt>
      <trkpt lat="44.2337" lon="3.19903">
        <ele>934</ele>
        <time>2017-02-28T02:14:18Z</time>
      </trkpt>
      <trkpt lat="44.2333" lon="3.19995">
        <ele>934</ele>
        <time>2017-02-28T02:16:18Z</time>
      </trkpt>
      <trkpt lat="44.23344" lon="3.20193">
        <ele>941</ele>
        <time>2017-02-28T02:18:18Z</time>
      </trkpt>
      <trkpt lat="44.23348" lon="3.20206">
        <ele>941</ele>
        <time>2017-02-28T02:20:18Z</time>
      </trkpt>
      <trkpt lat="44.23381" lon="3.20385">
        <ele>944</ele>
        <time>2017-02-28T02:22:18Z</time>
      </trkpt>
      <trkpt lat="44.23364" lon="3.2059">
        <ele>935</ele>
        <time>2017-02-28T02:24:18Z</time>
      </trkpt>
      <trkpt lat="44.23393" lon="3.20686">
        <ele>937</ele>
        <time>2017-02-28T02:26:18Z</time>
      </trkpt>
      <trkpt lat="44.23437" lon="3.20936">
        <ele>932</ele>
        <time>2017-02-28T02:28:18Z</time>
      </trkpt>
      <trkpt lat="44.23489" lon="3.20989">
        <ele>926</ele>
        <time>2017-02-28T02:30:18Z</time>
      </trkpt>
      <trkpt lat="44.23642" lon="3.21036">
        <ele>934</ele>
        <time>2017-02-28T02:32:18Z</time>
      </trkpt>
      <trkpt lat="44.23698" lon="3.21082">
        <ele>939</ele>
        <time>2017-02-28T02:34:18Z</time>
      </trkpt>
      <trkpt lat="44.237" lon="3.21086">
        <ele>939</ele>
        <time>2017-02-28T02:36:18Z</time>
      </trkpt>
      <trkpt lat="44.23549" lon="3.21399">
        <ele>943</ele>
        <time>2017-02-28T02:38:18Z</time>
      </trkpt>
      <trkpt lat="44.2351" lon="3.21524">
        <ele>939</ele>
        <time>2017-02-28T02:40:18Z</time>
      </trkpt>
      <trkpt lat="44.23481" lon="3.21806">
        <ele>915</ele>
        <time>2017-02-28T02:42:18Z</time>
      </trkpt>
      <trkpt lat="44.23458" lon="3.21943">
        <ele>894</ele>
        <time>2017-02-28T02:44:18Z</time>
      </trkpt>
      <trkpt lat="44.23438" lon="3.22026">
        <ele>875</ele>
        <time>2017-02-28T02:46:18Z</time>
      </trkpt>
      <trkpt lat="44.23404" lon="3.22067">
        <ele>863</ele>
        <time>2017-02-28T02:48:18Z</time>
      </trkpt>
      <trkpt lat="44.23269" lon="3.22095">
        <ele>830</ele>
        <time>2017-02-28T02:50:18Z</time>
      </trkpt>
      <trkpt lat="44.23214" lon="3.22074">
        <ele>819</ele>
        <time>2017-02-28T02:52:18Z</time>
      </trkpt>
      <trkpt lat="44.23186" lon="3.22023">
        <ele>822</ele>
        <time>2017-02-28T02:54:18Z</time>
      </trkpt>
      <trkpt lat="44.23127" lon="3.22014">
        <ele>822</ele>
        <time>2017-02-28T02:56:18Z</time>
      </trkpt>
      <trkpt lat="44.2309" lon="3.22069">
        <ele>809</ele>
        <time>2017-02-28T02:58:18Z</time>
      </trkpt>
      <trkpt lat="44.23046" lon="3.22095">
        <ele>804</ele>
        <time>2017-02-28T03:00:18Z</time>
      </trkpt>
      <trkpt lat="44.23022" lon="3.2212">
        <ele>797</ele>
        <time>2017-02-28T03:02:18Z</time>
      </trkpt>
      <trkpt lat="44.23012" lon="3.22127">
        <ele>795</ele>
        <time>2017-02-28T03:04:18Z</time>
      </trkpt>
      <trkpt lat="44.22961" lon="3.22128">
        <ele>787</ele>
        <time>2017-02-28T03:06:18Z</time>
      </trkpt>
      <trkpt lat="44.22832" lon="3.22069">
        <ele>763</ele>
        <time>2017-02-28T03:08:18Z</time>
      </trkpt>
      <trkpt lat="44.22856" lon="3.22096">
        <ele>767</ele>
        <time>2017-02-28T03:10:18Z</time>
      </trkpt>
      <trkpt lat="44.22878" lon="3.222">
        <ele>745</ele>
        <time>2017-02-28T03:12:18Z</time>
      </trkpt>
      <trkpt lat="44.22823" lon="3.2218">
        <ele>738</ele>
        <time>2017-02-28T03:14:18Z</time>
      </trkpt>
      <trkpt lat="44.22713" lon="3.21982">
        <ele>696</ele>
        <time>2017-02-28T03:16:18Z</time>
      </trkpt>
      <trkpt lat="44.22727" lon="3.21891">
        <ele>733</ele>
        <time>2017-02-28T03:18:18Z</time>
      </trkpt>
      <trkpt lat="44.22595" lon="3.21825">
        <ele>696</ele>
        <time>2017-02-28T03:20:18Z</time>
      </trkpt>
      <trkpt lat="44.22544" lon="3.21773">
        <ele>697</ele>
        <time>2017-02-28T03:22:18Z</time>
      </trkpt>
      <trkpt lat="44.22543" lon="3.21751">
        <ele>713</ele>
        <time>2017-02-28T03:24:18Z</time>
      </trkpt>
      <trkpt lat="44.2254" lon="3.21749">
        <ele>711</ele>
        <time>2017-02-28T03:26:18Z</time>
      </trkpt>
      <trkpt lat="44.22479" lon="3.21707">
        <ele>676</ele>
        <time>2017-02-28T03:28:18Z</time>
      </trkpt>
      <trkpt lat="44.22427" lon="3.21514">
        <ele>688</ele>
        <time>2017-02-28T03:30:18Z</time>
      </trkpt>
      <trkpt lat="44.2237" lon="3.21488">
        <ele>660</ele>
        <time>2017-02-28T03:32:18Z</time>
      </trkpt>
      <trkpt lat="44.22333" lon="3.21424">
        <ele>666</ele>
        <time>2017-02-28T03:34:18Z</time>
      </trkpt>
      <trkpt lat="44.22321" lon="3.21335">
        <ele>697</ele>
        <time>2017-02-28T03:36:18Z</time>
      </trkpt>
      <trkpt lat="44.22275" lon="3.21285">
        <ele>704</ele>
        <time>2017-02-28T03:38:18Z</time>
      </trkpt>
      <trkpt lat="44.22249" lon="3.2131">
        <ele>688</ele>
        <time>2017-02-28T03:40:18Z</time>
      </trkpt>
      <trkpt lat="44.22155" lon="3.21308">
        <ele>717</ele>
        <time>2017-02-28T03:42:18Z</time>
      </trkpt>
      <trkpt lat="44.22152" lon="3.2131">
        <ele>718</ele>
        <time>2017-02-28T03:44:18Z</time>
      </trkpt>
      <trkpt lat="44.21997" lon="3.21496">
        <ele>712</ele>
        <time>2017-02-28T03:46:18Z</time>
      </trkpt>
      <trkpt lat="44.2198" lon="3.2156">
        <ele>682</ele>
        <time>2017-02-28T03:48:18Z</time>
      </trkpt>
      <trkpt lat="44.21916" lon="3.21543">
        <ele>715</ele>
        <time>2017-02-28T03:50:18Z</time>
      </trkpt>
      <trkpt lat="44.21822" lon="3.21555">
        <ele>707</ele>
        <time>2017-02-28T03:52:18Z</time>
      </trkpt>
      <trkpt lat="44.2175" lon="3.21632">
        <ele>676</ele>
        <time>2017-02-28T03:54:18Z</time>
      </trkpt>
      <trkpt lat="44.21693" lon="3.21631">
        <ele>706</ele>
        <time>2017-02-28T03:56:18Z</time>
      </trkpt>
      <trkpt lat="44.21668" lon="3.21784">
        <ele>673</ele>
        <time>2017-02-28T03:58:18Z</time>
      </trkpt>
      <trkpt lat="44.21637" lon="3.21845">
        <ele>676</ele>
        <time>2017-02-28T04:00:18Z</time>
      </trkpt>
      <trkpt lat="44.21608" lon="3.21913">
        <ele>661</ele>
        <time>2017-02-28T04:02:18Z</time>
      </trkpt>
      <trkpt lat="44.21582" lon="3.21929">
        <ele>662</ele>
        <time>2017-02-28T04:04:18Z</time>
      </trkpt>
      <trkpt lat="44.21589" lon="3.21887">
        <ele>684</ele>
        <time>2017-02-28T04:06:18Z</time>
      </trkpt>
      <trkpt lat="44.21572" lon="3.21913">
        <ele>669</ele>
        <time>2017-02-28T04:08:18Z</time>
      </trkpt>
      <trkpt lat="44.21596" lon="3.21926">
        <ele>659</ele>
        <time>2017-02-28T04:10:18Z</time>
      </trkpt>
      <trkpt lat="44.21637" lon="3.21845">
        <ele>676</ele>
        <time>2017-02-28T04:12:18Z</time>
      </trkpt>
      <trkpt lat="44.21646" lon="3.21822">
        <ele>678</ele>
        <time>2017-02-28T04:14:18Z</time>
      </trkpt>
      <trkpt lat="44.21668" lon="3.21784">
        <ele>673</ele>
        <time>2017-02-28T04:16:18Z</time>
      </trkpt>
      <trkpt lat="44.21691" lon="3.21633">
        <ele>706</ele>
        <time>2017-02-28T04:18:18Z</time>
      </trkpt>
      <trkpt lat="44.2175" lon="3.21632">
        <ele>676</ele>
        <time>2017-02-28T04:20:18Z</time>
      </trkpt>
      <trkpt lat="44.21826" lon="3.21554">
        <ele>706</ele>
        <time>2017-02-28T04:22:18Z</time>
      </trkpt>
      <trkpt lat="44.21916" lon="3.21543">
        <ele>715</ele>
        <time>2017-02-28T04:24:18Z</time>
      </trkpt>
      <trkpt lat="44.21977" lon="3.21561">
        <ele>682</ele>
        <time>2017-02-28T04:26:18Z</time>
      </trkpt>
      <trkpt lat="44.21826" lon="3.21554">
        <ele>706</ele>
        <time>2017-02-28T04:28:18Z</time>
      </trkpt>
      <trkpt lat="44.2175" lon="3.21632">
        <ele>676</ele>
        <time>2017-02-28T04:30:18Z</time>
      </trkpt>
      <trkpt lat="44.21693" lon="3.21631">
        <ele>706</ele>
        <time>2017-02-28T04:32:18Z</time>
      </trkpt>
      <trkpt lat="44.21668" lon="3.21784">
        <ele>673</ele>
        <time>2017-02-28T04:34:18Z</time>
      </trkpt>
      <trkpt lat="44.21637" lon="3.21845">
        <ele>676</ele>
        <time>2017-02-28T04:36:18Z</time>
      </trkpt>
      <trkpt lat="44.21608" lon="3.21913">
        <ele>661</ele>
        <time>2017-02-28T04:38:18Z</time>
      </trkpt>
      <trkpt lat="44.21582" lon="3.21929">
        <ele>662</ele>
        <time>2017-02-28T04:40:18Z</time>
      </trkpt>
      <trkpt lat="44.21531" lon="3.21885">
        <ele>675</ele>
        <time>2017-02-28T04:42:18Z</time>
      </trkpt>
      <trkpt lat="44.21434" lon="3.21878">
        <ele>650</ele>
        <time>2017-02-28T04:44:18Z</time>
      </trkpt>
      <trkpt lat="44.21403" lon="3.21805">
        <ele>672</ele>
        <time>2017-02-28T04:46:18Z</time>
      </trkpt>
      <trkpt lat="44.21321" lon="3.2175">
        <ele>681</ele>
        <time>2017-02-28T04:48:18Z</time>
      </trkpt>
      <trkpt lat="44.21318" lon="3.21751">
        <ele>680</ele>
        <time>2017-02-28T04:50:18Z</time>
      </trkpt>
      <trkpt lat="44.21265" lon="3.21807">
        <ele>650</ele>
        <time>2017-02-28T04:52:18Z</time>
      </trkpt>
      <trkpt lat="44.21192" lon="3.21764">
        <ele>656</ele>
        <time>2017-02-28T04:54:18Z</time>
      </trkpt>
      <trkpt lat="44.21066" lon="3.21744">
        <ele>622</ele>
        <time>2017-02-28T04:56:18Z</time>
      </trkpt>
      <trkpt lat="44.21022" lon="3.21654">
        <ele>619</ele>
        <time>2017-02-28T04:58:18Z</time>
      </trkpt>
      <trkpt lat="44.21089" lon="3.2157">
        <ele>637</ele>
        <time>2017-02-28T05:00:18Z</time>
      </trkpt>
      <trkpt lat="44.2112" lon="3.21498">
        <ele>639</ele>
        <time>2017-02-28T05:02:18Z</time>
      </trkpt>
      <trkpt lat="44.21107" lon="3.21336">
        <ele>650</ele>
        <time>2017-02-28T05:04:18Z</time>
      </trkpt>
      <trkpt lat="44.21101" lon="3.21328">
        <ele>649</ele>
        <time>2017-02-28T05:06:18Z</time>
      </trkpt>
      <trkpt lat="44.20922" lon="3.21243">
        <ele>631</ele>
        <time>2017-02-28T05:08:18Z</time>
      </trkpt>
      <trkpt lat="44.20857" lon="3.21242">
        <ele>606</ele>
        <time>2017-02-28T05:10:18Z</time>
      </trkpt>
      <trkpt lat="44.20852" lon="3.21068">
        <ele>624</ele>
        <time>2017-02-28T05:12:18Z</time>
      </trkpt>
      <trkpt lat="44.20754" lon="3.20998">
        <ele>617</ele>
        <time>2017-02-28T05:14:18Z</time>
      </trkpt>
      <trkpt lat="44.20647" lon="3.21074">
        <ele>608</ele>
        <time>2017-02-28T05:16:18Z</time>
      </trkpt>
      <trkpt lat="44.20574" lon="3.21164">
        <ele>592</ele>
        <time>2017-02-28T05:18:18Z</time>
      </trkpt>
      <trkpt lat="44.20546" lon="3.21176">
        <ele>597</ele>
        <time>2017-02-28T05:20:18Z</time>
      </trkpt>
      <trkpt lat="44.20494" lon="3.21251">
        <ele>584</ele>
        <time>2017-02-28T05:22:18Z</time>
      </trkpt>
      <trkpt lat="44.2043" lon="3.21271">
        <ele>575</ele>
        <time>2017-02-28T05:24:18Z</time>
      </trkpt>
      <trkpt lat="44.20295" lon="3.21185">
        <ele>568</ele>
        <time>2017-02-28T05:26:18Z</time>
      </trkpt>
      <trkpt lat="44.20292" lon="3.21068">
        <ele>591</ele>
        <time>2017-02-28T05:28:18Z</time>
      </trkpt>
      <trkpt lat="44.2015" lon="3.2099">
        <ele>579</ele>
        <time>2017-02-28T05:30:18Z</time>
      </trkpt>
      <trkpt lat="44.20065" lon="3.20985">
        <ele>574</ele>
        <time>2017-02-28T05:32:18Z</time>
      </trkpt>
      <trkpt lat="44.20004" lon="3.20974">
        <ele>575</ele>
        <time>2017-02-28T05:34:18Z</time>
      </trkpt>
      <trkpt lat="44.19944" lon="3.20948">
        <ele>571</ele>
        <time>2017-02-28T05:36:18Z</time>
      </trkpt>
      <trkpt lat="44.19876" lon="3.2089">
        <ele>558</ele>
        <time>2017-02-28T05:38:18Z</time>
      </trkpt>
      <trkpt lat="44.19821" lon="3.20881">
        <ele>541</ele>
        <time>2017-02-28T05:40:18Z</time>
      </trkpt>
      <trkpt lat="44.19737" lon="3.20794">
        <ele>511</ele>
        <time>2017-02-28T05:42:18Z</time>
      </trkpt>
      <trkpt lat="44.19708" lon="3.2072">
        <ele>493</ele>
        <time>2017-02-28T05:44:18Z</time>
      </trkpt>
      <trkpt lat="44.19724" lon="3.20541">
        <ele>478</ele>
        <time>2017-02-28T05:46:18Z</time>
      </trkpt>
      <trkpt lat="44.1969" lon="3.20418">
        <ele>460</ele>
        <time>2017-02-28T05:48:18Z</time>
      </trkpt>
      <trkpt lat="44.19652" lon="3.20385">
        <ele>448</ele>
        <time>2017-02-28T05:50:18Z</time>
      </trkpt>
      <trkpt lat="44.19634" lon="3.2041">
        <ele>443</ele>
        <time>2017-02-28T05:52:18Z</time>
      </trkpt>
      <trkpt lat="44.19646" lon="3.20428">
        <ele>446</ele>
        <time>2017-02-28T05:54:18Z</time>
      </trkpt>
      <trkpt lat="44.19617" lon="3.20408">
        <ele>438</ele>
        <time>2017-02-28T05:56:18Z</time>
      </trkpt>
      <trkpt lat="44.19609" lon="3.20497">
        <ele>432</ele>
        <time>2017-02-28T05:58:18Z</time>
      </trkpt>
      <trkpt lat="44.19545" lon="3.20519">
        <ele>415</ele>
        <time>2017-02-28T06:00:18Z</time>
      </trkpt>
      <trkpt lat="44.19451" lon="3.20469">
        <ele>396</ele>
        <time>2017-02-28T06:02:18Z</time>
      </trkpt>
      <trkpt lat="44.19448" lon="3.20769">
        <ele>400</ele>
        <time>2017-02-28T06:04:18Z</time>
      </trkpt>
      <trkpt lat="44.19421" lon="3.20805">
        <ele>394</ele>
        <time>2017-02-28T06:06:18Z</time>
      </trkpt>
      <trkpt lat="44.1932" lon="3.20843">
        <ele>411</ele>
        <time>2017-02-28T06:08:18Z</time>
      </trkpt>
      <trkpt lat="44.19185" lon="3.20613">
        <ele>400</ele>
        <time>2017-02-28T06:10:18Z</time>
      </trkpt>
      <trkpt lat="44.19146" lon="3.20614">
        <ele>401</ele>
        <time>2017-02-28T06:12:18Z</time>
      </trkpt>
      <trkpt lat="44.19086" lon="3.20638">
        <ele>400</ele>
        <time>2017-02-28T06:14:18Z</time>
      </trkpt>
      <trkpt lat="44.18889" lon="3.20661">
        <ele>433</ele>
        <time>2017-02-28T06:16:18Z</time>
      </trkpt>
      <trkpt lat="44.18785" lon="3.20527">
        <ele>452</ele>
        <time>2017-02-28T06:18:18Z</time>
      </trkpt>
      <trkpt lat="44.18678" lon="3.20482">
        <ele>456</ele>
        <time>2017-02-28T06:20:18Z</time>
      </trkpt>
      <trkpt lat="44.18575" lon="3.20346">
        <ele>466</ele>
        <time>2017-02-28T06:22:18Z</time>
      </trkpt>
      <trkpt lat="44.18567" lon="3.20372">
        <ele>469</ele>
        <time>2017-02-28T06:24:18Z</time>
      </trkpt>
      <trkpt lat="44.18616" lon="3.20526">
        <ele>480</ele>
        <time>2017-02-28T06:26:18Z</time>
      </trkpt>
      <trkpt lat="44.18687" lon="3.20607">
        <ele>470</ele>
        <time>2017-02-28T06:28:18Z</time>
      </trkpt>
      <trkpt lat="44.18643" lon="3.20727">
        <ele>492</ele>
        <time>2017-02-28T06:30:18Z</time>
      </trkpt>
      <trkpt lat="44.18633" lon="3.20829">
        <ele>492</ele>
        <time>2017-02-28T06:32:18Z</time>
      </trkpt>
      <trkpt lat="44.18576" lon="3.20985">
        <ele>502</ele>
        <time>2017-02-28T06:34:18Z</time>
      </trkpt>
      <trkpt lat="44.18515" lon="3.21061">
        <ele>505</ele>
        <time>2017-02-28T06:36:18Z</time>
      </trkpt>
      <trkpt lat="44.18388" lon="3.21091">
        <ele>546</ele>
        <time>2017-02-28T06:38:18Z</time>
      </trkpt>
      <trkpt lat="44.18345" lon="3.21145">
        <ele>538</ele>
        <time>2017-02-28T06:40:18Z</time>
      </trkpt>
      <trkpt lat="44.18386" lon="3.21081">
        <ele>553</ele>
        <time>2017-02-28T06:42:18Z</time>
      </trkpt>
      <trkpt lat="44.18474" lon="3.21042">
        <ele>532</ele>
        <time>2017-02-28T06:44:18Z</time>
      </trkpt>
      <trkpt lat="44.18516" lon="3.20957">
        <ele>538</ele>
        <time>2017-02-28T06:46:18Z</time>
      </trkpt>
      <trkpt lat="44.18549" lon="3.20806">
        <ele>544</ele>
        <time>2017-02-28T06:48:18Z</time>
      </trkpt>
      <trkpt lat="44.18548" lon="3.20661">
        <ele>545</ele>
        <time>2017-02-28T06:50:18Z</time>
      </trkpt>
      <trkpt lat="44.1849" lon="3.20613">
        <ele>563</ele>
        <time>2017-02-28T06:52:18Z</time>
      </trkpt>
      <trkpt lat="44.18394" lon="3.20489">
        <ele>562</ele>
        <time>2017-02-28T06:54:18Z</time>
      </trkpt>
      <trkpt lat="44.18157" lon="3.20446">
        <ele>593</ele>
        <time>2017-02-28T06:56:18Z</time>
      </trkpt>
      <trkpt lat="44.18087" lon="3.20358">
        <ele>601</ele>
        <time>2017-02-28T06:58:18Z</time>
      </trkpt>
      <trkpt lat="44.18083" lon="3.20378">
        <ele>607</ele>
        <time>2017-02-28T07:00:18Z</time>
      </trkpt>
      <trkpt lat="44.18142" lon="3.20464">
        <ele>608</ele>
        <time>2017-02-28T07:02:18Z</time>
      </trkpt>
      <trkpt lat="44.18361" lon="3.20575">
        <ele>612</ele>
        <time>2017-02-28T07:04:18Z</time>
      </trkpt>
      <trkpt lat="44.18447" lon="3.20733">
        <ele>617</ele>
        <time>2017-02-28T07:06:18Z</time>
      </trkpt>
      <trkpt lat="44.18433" lon="3.20808">
        <ele>626</ele>
        <time>2017-02-28T07:08:18Z</time>
      </trkpt>
      <trkpt lat="44.1843" lon="3.20729">
        <ele>628</ele>
        <time>2017-02-28T07:10:18Z</time>
      </trkpt>
      <trkpt lat="44.18343" lon="3.20632">
        <ele>645</ele>
        <time>2017-02-28T07:12:18Z</time>
      </trkpt>
      <trkpt lat="44.18184" lon="3.20599">
        <ele>664</ele>
        <time>2017-02-28T07:14:18Z</time>
      </trkpt>
      <trkpt lat="44.1804" lon="3.20524">
        <ele>673</ele>
        <time>2017-02-28T07:16:18Z</time>
      </trkpt>
      <trkpt lat="44.18012" lon="3.20483">
        <ele>665</ele>
        <time>2017-02-28T07:18:18Z</time>
      </trkpt>
      <trkpt lat="44.17927" lon="3.20556">
        <ele>684</ele>
        <time>2017-02-28T07:20:18Z</time>
      </trkpt>
      <trkpt lat="44.17856" lon="3.20646">
        <ele>689</ele>
        <time>2017-02-28T07:22:18Z</time>
      </trkpt>
      <trkpt lat="44.1786" lon="3.20741">
        <ele>701</ele>
        <time>2017-02-28T07:24:18Z</time>
      </trkpt>
      <trkpt lat="44.178" lon="3.20779">
        <ele>701</ele>
        <time>2017-02-28T07:26:18Z</time>
      </trkpt>
      <trkpt lat="44.17763" lon="3.20837">
        <ele>707</ele>
        <time>2017-02-28T07:28:18Z</time>
      </trkpt>
      <trkpt lat="44.17675" lon="3.20921">
        <ele>715</ele>
        <time>2017-02-28T07:30:18Z</time>
      </trkpt>
      <trkpt lat="44.176" lon="3.20865">
        <ele>713</ele>
        <time>2017-02-28T07:32:18Z</time>
      </trkpt>
      <trkpt lat="44.1733" lon="3.20779">
        <ele>735</ele>
        <time>2017-02-28T07:34:18Z</time>
      </trkpt>
      <trkpt lat="44.17145" lon="3.2096">
        <ele>736</ele>
        <time>2017-02-28T07:36:18Z</time>
      </trkpt>
      <trkpt lat="44.16912" lon="3.21058">
        <ele>733</ele>
        <time>2017-02-28T07:38:18Z</time>
      </trkpt>
      <trkpt lat="44.16877" lon="3.21056">
        <ele>733</ele>
        <time>2017-02-28T07:40:18Z</time>
      </trkpt>
      <trkpt lat="44.16746" lon="3.20947">
        <ele>740</ele>
        <time>2017-02-28T07:42:18Z</time>
      </trkpt>
      <trkpt lat="44.16691" lon="3.20951">
        <ele>744</ele>
        <time>2017-02-28T07:44:18Z</time>
      </trkpt>
      <trkpt lat="44.16581" lon="3.21127">
        <ele>751</ele>
        <time>2017-02-28T07:46:18Z</time>
      </trkpt>
      <trkpt lat="44.16549" lon="3.21243">
        <ele>759</ele>
        <time>2017-02-28T07:48:18Z</time>
      </trkpt>
      <trkpt lat="44.16231" lon="3.21427">
        <ele>766</ele>
        <time>2017-02-28T07:50:18Z</time>
      </trkpt>
      <trkpt lat="44.16294" lon="3.21541">
        <ele>777</ele>
        <time>2017-02-28T07:52:18Z</time>
      </trkpt>
      <trkpt lat="44.16392" lon="3.21586">
        <ele>778</ele>
        <time>2017-02-28T07:54:18Z</time>
      </trkpt>
      <trkpt lat="44.16405" lon="3.21616">
        <ele>780</ele>
        <time>2017-02-28T07:56:18Z</time>
      </trkpt>
      <trkpt lat="44.16315" lon="3.2203">
        <ele>798</ele>
        <time>2017-02-28T07:58:18Z</time>
      </trkpt>
      <trkpt lat="44.16332" lon="3.22075">
        <ele>800</ele>
        <time>2017-02-28T08:00:18Z</time>
      </trkpt>
      <trkpt lat="44.16379" lon="3.2211">
        <ele>802</ele>
        <time>2017-02-28T08:02:18Z</time>
      </trkpt>
      <trkpt lat="44.16375" lon="3.22226">
        <ele>811</ele>
        <time>2017-02-28T08:04:18Z</time>
      </trkpt>
      <trkpt lat="44.16455" lon="3.22213">
        <ele>809</ele>
        <time>2017-02-28T08:06:18Z</time>
      </trkpt>
      <trkpt lat="44.16549" lon="3.22275">
        <ele>817</ele>
        <time>2017-02-28T08:08:18Z</time>
      </trkpt>
      <trkpt lat="44.16843" lon="3.22333">
        <ele>835</ele>
        <time>2017-02-28T08:10:18Z</time>
      </trkpt>
      <trkpt lat="44.16965" lon="3.22451">
        <ele>841</ele>
        <time>2017-02-28T08:12:18Z</time>
      </trkpt>
      <trkpt lat="44.1697" lon="3.22487">
        <ele>844</ele>
        <time>2017-02-28T08:14:18Z</time>
      </trkpt>
      <trkpt lat="44.16965" lon="3.22451">
        <ele>841</ele>
        <time>2017-02-28T08:16:18Z</time>
      </trkpt>
      <trkpt lat="44.16933" lon="3.22426">
        <ele>839</ele>
        <time>2017-02-28T08:18:18Z</time>
      </trkpt>
      <trkpt lat="44.16972" lon="3.22464">
        <ele>842</ele>
        <time>2017-02-28T08:20:18Z</time>
      </trkpt>
      <trkpt lat="44.16976" lon="3.22513">
        <ele>846</ele>
        <time>2017-02-28T08:22:18Z</time>
      </trkpt>
      <trkpt lat="44.1703" lon="3.22511">
        <ele>845</ele>
        <time>2017-02-28T08:24:18Z</time>
      </trkpt>
      <trkpt lat="44.17105" lon="3.22571">
        <ele>849</ele>
        <time>2017-02-28T08:26:18Z</time>
      </trkpt>
      <trkpt lat="44.17195" lon="3.22558">
        <ele>840</ele>
        <time>2017-02-28T08:28:18Z</time>
      </trkpt>
      <trkpt lat="44.17137" lon="3.22878">
        <ele>836</ele>
        <time>2017-02-28T08:30:18Z</time>
      </trkpt>
      <trkpt lat="44.17188" lon="3.23004">
        <ele>818</ele>
        <time>2017-02-28T08:32:18Z</time>
      </trkpt>
      <trkpt lat="44.17152" lon="3.23101">
        <ele>822</ele>
        <time>2017-02-28T08:34:18Z</time>
      </trkpt>
      <trkpt lat="44.17206" lon="3.23174">
        <ele>811</ele>
        <time>2017-02-28T08:36:18Z</time>
      </trkpt>
      <trkpt lat="44.17339" lon="3.23165">
        <ele>797</ele>
        <time>2017-02-28T08:38:18Z</time>
      </trkpt>
      <trkpt lat="44.17639" lon="3.22985">
        <ele>800</ele>
        <time>2017-02-28T08:40:18Z</time>
      </trkpt>
      <trkpt lat="44.17643" lon="3.23067">
        <ele>813</ele>
        <time>2017-02-28T08:42:18Z</time>
      </trkpt>
      <trkpt lat="44.17607" lon="3.23112">
        <ele>814</ele>
        <time>2017-02-28T08:44:18Z</time>
      </trkpt>
      <trkpt lat="44.17564" lon="3.23228">
        <ele>828</ele>
        <time>2017-02-28T08:46:18Z</time>
      </trkpt>
      <trkpt lat="44.17517" lon="3.23438">
        <ele>848</ele>
        <time>2017-02-28T08:48:18Z</time>
      </trkpt>
      <trkpt lat="44.17538" lon="3.2355">
        <ele>861</ele>
        <time>2017-02-28T08:50:18Z</time>
      </trkpt>
      <trkpt lat="44.1763" lon="3.23309">
        <ele>845</ele>
        <time>2017-02-28T08:52:18Z</time>
      </trkpt>
      <trkpt lat="44.17729" lon="3.23172">
        <ele>838</ele>
        <time>2017-02-28T08:54:18Z</time>
      </trkpt>
      <trkpt lat="44.17824" lon="3.23107">
        <ele>841</ele>
        <time>2017-02-28T08:56:18Z</time>
      </trkpt>
      <trkpt lat="44.17847" lon="3.23037">
        <ele>843</ele>
        <time>2017-02-28T08:58:18Z</time>
      </trkpt>
      <trkpt lat="44.17839" lon="3.22914">
        <ele>845</ele>
        <time>2017-02-28T09:00:18Z</time>
      </trkpt>
      <trkpt lat="44.17897" lon="3.22794">
        <ele>849</ele>
        <time>2017-02-28T09:02:18Z</time>
      </trkpt>
      <trkpt lat="44.17957" lon="3.22743">
        <ele>848</ele>
        <time>2017-02-28T09:04:18Z</time>
      </trkpt>
      <trkpt lat="44.17986" lon="3.22656">
        <ele>845</ele>
        <time>2017-02-28T09:06:18Z</time>
      </trkpt>
      <trkpt lat="44.18092" lon="3.22543">
        <ele>842</ele>
        <time>2017-02-28T09:08:18Z</time>
      </trkpt>
      <trkpt lat="44.18113" lon="3.22494">
        <ele>841</ele>
        <time>2017-02-28T09:10:18Z</time>
      </trkpt>
      <trkpt lat="44.18246" lon="3.22412">
        <ele>840</ele>
        <time>2017-02-28T09:12:18Z</time>
      </trkpt>
      <trkpt lat="44.18255" lon="3.22333">
        <ele>837</ele>
        <time>2017-02-28T09:14:18Z</time>
      </trkpt>
      <trkpt lat="44.18229" lon="3.22314">
        <ele>834</ele>
        <time>2017-02-28T09:16:18Z</time>
      </trkpt>
      <trkpt lat="44.18199" lon="3.22344">
        <ele>833</ele>
        <time>2017-02-28T09:18:18Z</time>
      </trkpt>
      <trkpt lat="44.18137" lon="3.22339">
        <ele>831</ele>
        <time>2017-02-28T09:20:18Z</time>
      </trkpt>
      <trkpt lat="44.1812" lon="3.22288">
        <ele>826</ele>
        <time>2017-02-28T09:22:18Z</time>
      </trkpt>
      <trkpt lat="44.18036" lon="3.22241">
        <ele>818</ele>
        <time>2017-02-28T09:24:18Z</time>
      </trkpt>
      <trkpt lat="44.18015" lon="3.21878">
        <ele>773</ele>
        <time>2017-02-28T09:26:18Z</time>
      </trkpt>
      <trkpt lat="44.18079" lon="3.21917">
        <ele>766</ele>
        <time>2017-02-28T09:28:18Z</time>
      </trkpt>
      <trkpt lat="44.18109" lon="3.21981">
        <ele>779</ele>
        <time>2017-02-28T09:30:18Z</time>
      </trkpt>
      <trkpt lat="44.18158" lon="3.21887">
        <ele>752</ele>
        <time>2017-02-28T09:32:18Z</time>
      </trkpt>
      <trkpt lat="44.18208" lon="3.21852">
        <ele>746</ele>
        <time>2017-02-28T09:34:18Z</time>
      </trkpt>
      <trkpt lat="44.18242" lon="3.21792">
        <ele>730</ele>
        <time>2017-02-28T09:36:18Z</time>
      </trkpt>
      <trkpt lat="44.1827" lon="3.21801">
        <ele>736</ele>
        <time>2017-02-28T09:38:18Z</time>
      </trkpt>
      <trkpt lat="44.18381" lon="3.21702">
        <ele>693</ele>
        <time>2017-02-28T09:40:18Z</time>
      </trkpt>
      <trkpt lat="44.18386" lon="3.21681">
        <ele>686</ele>
        <time>2017-02-28T09:42:18Z</time>
      </trkpt>
      <trkpt lat="44.18457" lon="3.21921">
        <ele>681</ele>
        <time>2017-02-28T09:44:18Z</time>
      </trkpt>
      <trkpt lat="44.18484" lon="3.21938">
        <ele>676</ele>
        <time>2017-02-28T09:46:18Z</time>
      </trkpt>
      <trkpt lat="44.1857" lon="3.21912">
        <ele>653</ele>
        <time>2017-02-28T09:48:18Z</time>
      </trkpt>
      <trkpt lat="44.18504" lon="3.21859">
        <ele>642</ele>
        <time>2017-02-28T09:50:18Z</time>
      </trkpt>
      <trkpt lat="44.18551" lon="3.21841">
        <ele>623</ele>
        <time>2017-02-28T09:52:18Z</time>
      </trkpt>
      <trkpt lat="44.18562" lon="3.21803">
        <ele>608</ele>
        <time>2017-02-28T09:54:18Z</time>
      </trkpt>
      <trkpt lat="44.1862" lon="3.2179">
        <ele>592</ele>
        <time>2017-02-28T09:56:18Z</time>
      </trkpt>
      <trkpt lat="44.18598" lon="3.21764">
        <ele>585</ele>
        <time>2017-02-28T09:58:18Z</time>
      </trkpt>
      <trkpt lat="44.18695" lon="3.21635">
        <ele>529</ele>
        <time>2017-02-28T10:00:18Z</time>
      </trkpt>
      <trkpt lat="44.18742" lon="3.21417">
        <ele>465</ele>
        <time>2017-02-28T10:02:18Z</time>
      </trkpt>
      <trkpt lat="44.18894" lon="3.21191">
        <ele>419</ele>
        <time>2017-02-28T10:04:18Z</time>
      </trkpt>
      <trkpt lat="44.18899" lon="3.21151">
        <ele>416</ele>
        <time>2017-02-28T10:06:18Z</time>
      </trkpt>
      <trkpt lat="44.18952" lon="3.21121">
        <ele>407</ele>
        <time>2017-02-28T10:08:18Z</time>
      </trkpt>
      <trkpt lat="44.19207" lon="3.20909">
        <ele>439</ele>
        <time>2017-02-28T10:10:18Z</time>
      </trkpt>
    </trkseg>
  </trk>
</gpx>